sensor_id;sensor_type;location;lat;lon;timestamp;pressure;altitude;pressure_sealevel;temperature;humidity
48668;BME280;34453;52.198;5.004;2023-09-30T00:00:51;102501.03;;;13.60;100.00
48668;BME280;34453;52.198;5.004;2023-09-30T00:03:18;102497.59;;;13.59;100.00
48668;BME280;34453;52.198;5.004;2023-09-30T00:05:43;102505.22;;;13.62;100.00
48668;BME280;34453;52.198;5.004;2023-09-30T00:08:08;102506.56;;;13.57;100.00
48668;BME280;34453;52.198;5.004;2023-09-30T00:10:34;102511.00;;;13.56;100.00
48668;BME280;34453;52.198;5.004;2023-09-30T00:12:59;102507.84;;;13.51;100.00
48668;BME280;34453;52.198;5.004;2023-09-30T00:15:25;102511.31;;;13.52;100.00
48668;BME280;34453;52.198;5.004;2023-09-30T00:17:50;102513.63;;;13.56;100.00
48668;BME280;34453;52.198;5.004;2023-09-30T00:20:16;102511.22;;;13.53;100.00
48668;BME280;34453;52.198;5.004;2023-09-30T00:22:42;102511.47;;;13.50;100.00
48668;BME280;34453;52.198;5.004;2023-09-30T00:25:08;102510.84;;;13.46;100.00
48668;BME280;34453;52.198;5.004;2023-09-30T00:27:33;102519.09;;;13.42;100.00
48668;BME280;34453;52.198;5.004;2023-09-30T00:29:59;102523.88;;;13.37;100.00
48668;BME280;34453;52.198;5.004;2023-09-30T00:32:24;102522.91;;;13.38;100.00
48668;BME280;34453;52.198;5.004;2023-09-30T00:34:50;102525.78;;;13.35;100.00
48668;BME280;34453;52.198;5.004;2023-09-30T00:37:17;102530.44;;;13.31;100.00
48668;BME280;34453;52.198;5.004;2023-09-30T00:39:43;102523.50;;;13.30;100.00
48668;BME280;34453;52.198;5.004;2023-09-30T00:42:10;102535.69;;;13.31;100.00
48668;BME280;34453;52.198;5.004;2023-09-30T00:44:35;102546.34;;;13.30;100.00
48668;BME280;34453;52.198;5.004;2023-09-30T00:47:01;102542.25;;;13.25;100.00
48668;BME280;34453;52.198;5.004;2023-09-30T00:49:28;102535.06;;;13.27;100.00
48668;BME280;34453;52.198;5.004;2023-09-30T00:51:55;102537.34;;;13.21;100.00
48668;BME280;34453;52.198;5.004;2023-09-30T00:54:21;102527.66;;;13.21;100.00
48668;BME280;34453;52.198;5.004;2023-09-30T00:56:48;102521.56;;;13.21;100.00
48668;BME280;34453;52.198;5.004;2023-09-30T00:59:15;102522.41;;;13.21;100.00
48668;BME280;34453;52.198;5.004;2023-09-30T01:01:45;102533.63;;;13.23;100.00
48668;BME280;34453;52.198;5.004;2023-09-30T01:04:11;102544.25;;;13.22;100.00
48668;BME280;34453;52.198;5.004;2023-09-30T01:06:37;102541.50;;;13.23;100.00
48668;BME280;34453;52.198;5.004;2023-09-30T01:09:03;102537.19;;;13.22;100.00
48668;BME280;34453;52.198;5.004;2023-09-30T01:11:28;102546.78;;;13.23;100.00
48668;BME280;34453;52.198;5.004;2023-09-30T01:13:54;102552.03;;;13.23;100.00
48668;BME280;34453;52.198;5.004;2023-09-30T01:16:20;102560.41;;;13.29;100.00
48668;BME280;34453;52.198;5.004;2023-09-30T01:18:46;102560.84;;;13.22;100.00
48668;BME280;34453;52.198;5.004;2023-09-30T01:21:11;102563.00;;;13.17;100.00
48668;BME280;34453;52.198;5.004;2023-09-30T01:23:37;102563.81;;;13.18;100.00
48668;BME280;34453;52.198;5.004;2023-09-30T01:26:08;102563.63;;;13.21;100.00
48668;BME280;34453;52.198;5.004;2023-09-30T01:28:34;102545.31;;;13.19;100.00
48668;BME280;34453;52.198;5.004;2023-09-30T01:30:59;102561.00;;;13.21;100.00
48668;BME280;34453;52.198;5.004;2023-09-30T01:33:25;102561.09;;;13.19;100.00
48668;BME280;34453;52.198;5.004;2023-09-30T01:35:51;102551.88;;;13.14;100.00
48668;BME280;34453;52.198;5.004;2023-09-30T01:38:16;102547.47;;;13.14;100.00
48668;BME280;34453;52.198;5.004;2023-09-30T01:40:42;102550.09;;;13.14;100.00
48668;BME280;34453;52.198;5.004;2023-09-30T01:43:09;102556.19;;;13.15;100.00
48668;BME280;34453;52.198;5.004;2023-09-30T01:45:34;102552.72;;;13.14;100.00
48668;BME280;34453;52.198;5.004;2023-09-30T01:48:01;102551.88;;;13.14;100.00
48668;BME280;34453;52.198;5.004;2023-09-30T01:50:27;102537.91;;;13.13;100.00
48668;BME280;34453;52.198;5.004;2023-09-30T01:52:52;102531.81;;;13.13;100.00
48668;BME280;34453;52.198;5.004;2023-09-30T01:55:18;102524.75;;;13.13;100.00
48668;BME280;34453;52.198;5.004;2023-09-30T01:57:43;102532.66;;;13.13;100.00
48668;BME280;34453;52.198;5.004;2023-09-30T02:00:09;102538.53;;;13.17;100.00
48668;BME280;34453;52.198;5.004;2023-09-30T02:02:35;102537.44;;;13.19;100.00
48668;BME280;34453;52.198;5.004;2023-09-30T02:05:02;102541.88;;;13.19;100.00
48668;BME280;34453;52.198;5.004;2023-09-30T02:07:28;102547.97;;;13.19;100.00
48668;BME280;34453;52.198;5.004;2023-09-30T02:09:54;102550.81;;;13.16;100.00
48668;BME280;34453;52.198;5.004;2023-09-30T02:12:19;102557.03;;;13.15;100.00
48668;BME280;34453;52.198;5.004;2023-09-30T02:14:45;102554.63;;;13.12;100.00
48668;BME280;34453;52.198;5.004;2023-09-30T02:17:11;102554.38;;;13.15;100.00
48668;BME280;34453;52.198;5.004;2023-09-30T02:19:36;102551.41;;;13.20;100.00
48668;BME280;34453;52.198;5.004;2023-09-30T02:22:02;102548.78;;;13.20;100.00
48668;BME280;34453;52.198;5.004;2023-09-30T02:24:27;102555.50;;;13.24;100.00
48668;BME280;34453;52.198;5.004;2023-09-30T02:26:53;102548.44;;;13.24;100.00
48668;BME280;34453;52.198;5.004;2023-09-30T02:29:18;102543.19;;;13.24;100.00
48668;BME280;34453;52.198;5.004;2023-09-30T02:31:45;102544.97;;;13.24;100.00
48668;BME280;34453;52.198;5.004;2023-09-30T02:34:10;102545.81;;;13.24;100.00
48668;BME280;34453;52.198;5.004;2023-09-30T02:36:35;102542.69;;;13.19;100.00
48668;BME280;34453;52.198;5.004;2023-09-30T02:39:04;102549.63;;;13.20;100.00
48668;BME280;34453;52.198;5.004;2023-09-30T02:41:30;102546.88;;;13.22;100.00
48668;BME280;34453;52.198;5.004;2023-09-30T02:43:56;102546.53;;;13.26;100.00
48668;BME280;34453;52.198;5.004;2023-09-30T02:46:21;102548.22;;;13.27;100.00
48668;BME280;34453;52.198;5.004;2023-09-30T02:48:47;102540.34;;;13.27;100.00
48668;BME280;34453;52.198;5.004;2023-09-30T02:51:12;102543.41;;;13.21;100.00
48668;BME280;34453;52.198;5.004;2023-09-30T02:53:37;102541.50;;;13.23;100.00
48668;BME280;34453;52.198;5.004;2023-09-30T02:56:03;102536.00;;;13.26;100.00
48668;BME280;34453;52.198;5.004;2023-09-30T02:58:30;102537.81;;;13.26;100.00
48668;BME280;34453;52.198;5.004;2023-09-30T03:00:55;102531.50;;;13.29;100.00
48668;BME280;34453;52.198;5.004;2023-09-30T03:03:21;102545.25;;;13.32;100.00
48668;BME280;34453;52.198;5.004;2023-09-30T03:05:47;102545.13;;;13.34;100.00
48668;BME280;34453;52.198;5.004;2023-09-30T03:08:15;102535.06;;;13.27;100.00
48668;BME280;34453;52.198;5.004;2023-09-30T03:10:41;102550.53;;;13.32;100.00
48668;BME280;34453;52.198;5.004;2023-09-30T03:13:06;102546.09;;;13.33;100.00
48668;BME280;34453;52.198;5.004;2023-09-30T03:15:34;102549.97;;;13.27;100.00
48668;BME280;34453;52.198;5.004;2023-09-30T03:18:00;102554.53;;;13.25;100.00
48668;BME280;34453;52.198;5.004;2023-09-30T03:20:25;102542.25;;;13.25;100.00
48668;BME280;34453;52.198;5.004;2023-09-30T03:22:51;102532.66;;;13.24;100.00
48668;BME280;34453;52.198;5.004;2023-09-30T03:25:18;102526.16;;;13.30;100.00
48668;BME280;34453;52.198;5.004;2023-09-30T03:27:44;102527.19;;;13.27;100.00
48668;BME280;34453;52.198;5.004;2023-09-30T03:30:12;102534.13;;;13.29;100.00
48668;BME280;34453;52.198;5.004;2023-09-30T03:32:38;102532.22;;;13.31;100.00
48668;BME280;34453;52.198;5.004;2023-09-30T03:35:08;102529.72;;;13.29;100.00
48668;BME280;34453;52.198;5.004;2023-09-30T03:37:36;102531.00;;;13.23;100.00
48668;BME280;34453;52.198;5.004;2023-09-30T03:40:03;102527.41;;;13.24;100.00
48668;BME280;34453;52.198;5.004;2023-09-30T03:42:38;102534.75;;;13.32;100.00
48668;BME280;34453;52.198;5.004;2023-09-30T03:45:05;102527.19;;;13.27;100.00
48668;BME280;34453;52.198;5.004;2023-09-30T03:47:35;102527.59;;;13.34;100.00
48668;BME280;34453;52.198;5.004;2023-09-30T03:50:01;102532.69;;;13.36;100.00
48668;BME280;34453;52.198;5.004;2023-09-30T03:52:28;102529.59;;;13.31;100.00
48668;BME280;34453;52.198;5.004;2023-09-30T03:54:54;102530.31;;;13.33;100.00
48668;BME280;34453;52.198;5.004;2023-09-30T03:57:19;102531.16;;;13.33;100.00
48668;BME280;34453;52.198;5.004;2023-09-30T03:59:45;102531.88;;;13.35;100.00
48668;BME280;34453;52.198;5.004;2023-09-30T04:02:11;102540.84;;;13.33;100.00
48668;BME280;34453;52.198;5.004;2023-09-30T04:04:37;102530.06;;;13.36;100.00
48668;BME280;34453;52.198;5.004;2023-09-30T04:07:02;102535.22;;;13.37;100.00
48668;BME280;34453;52.198;5.004;2023-09-30T04:09:31;102523.16;;;13.35;100.00
48668;BME280;34453;52.198;5.004;2023-09-30T04:11:57;102529.25;;;13.35;100.00
48668;BME280;34453;52.198;5.004;2023-09-30T04:14:22;102525.06;;;13.33;100.00
48668;BME280;34453;52.198;5.004;2023-09-30T04:16:48;102528.63;;;13.32;100.00
48668;BME280;34453;52.198;5.004;2023-09-30T04:19:13;102530.94;;;13.36;100.00
48668;BME280;34453;52.198;5.004;2023-09-30T04:21:39;102535.94;;;13.39;100.00
48668;BME280;34453;52.198;5.004;2023-09-30T04:24:05;102533.94;;;13.43;100.00
48668;BME280;34453;52.198;5.004;2023-09-30T04:26:32;102543.94;;;13.38;100.00
48668;BME280;34453;52.198;5.004;2023-09-30T04:28:57;102537.25;;;13.34;100.00
48668;BME280;34453;52.198;5.004;2023-09-30T04:31:23;102534.50;;;13.35;100.00
48668;BME280;34453;52.198;5.004;2023-09-30T04:33:49;102540.59;;;13.36;100.00
48668;BME280;34453;52.198;5.004;2023-09-30T04:36:19;102540.47;;;13.37;100.00
48668;BME280;34453;52.198;5.004;2023-09-30T04:38:45;102547.28;;;13.40;100.00
48668;BME280;34453;52.198;5.004;2023-09-30T04:41:12;102540.72;;;13.34;100.00
48668;BME280;34453;52.198;5.004;2023-09-30T04:43:38;102547.75;;;13.34;100.00
48668;BME280;34453;52.198;5.004;2023-09-30T04:46:04;102543.13;;;13.37;100.00
48668;BME280;34453;52.198;5.004;2023-09-30T04:48:30;102549.19;;;13.38;100.00
48668;BME280;34453;52.198;5.004;2023-09-30T04:50:57;102551.09;;;13.36;100.00
48668;BME280;34453;52.198;5.004;2023-09-30T04:53:22;102555.19;;;13.40;100.00
48668;BME280;34453;52.198;5.004;2023-09-30T04:55:48;102552.34;;;13.43;100.00
48668;BME280;34453;52.198;5.004;2023-09-30T04:58:15;102560.31;;;13.41;100.00
48668;BME280;34453;52.198;5.004;2023-09-30T05:00:41;102557.09;;;13.38;100.00
48668;BME280;34453;52.198;5.004;2023-09-30T05:03:07;102545.75;;;13.37;100.00
48668;BME280;34453;52.198;5.004;2023-09-30T05:05:32;102547.41;;;13.38;100.00
48668;BME280;34453;52.198;5.004;2023-09-30T05:07:57;102545.84;;;13.36;100.00
48668;BME280;34453;52.198;5.004;2023-09-30T05:10:24;102543.94;;;13.38;100.00
48668;BME280;34453;52.198;5.004;2023-09-30T05:12:50;102538.47;;;13.41;100.00
48668;BME280;34453;52.198;5.004;2023-09-30T05:15:20;102537.03;;;13.37;100.00
48668;BME280;34453;52.198;5.004;2023-09-30T05:17:46;102541.56;;;13.35;100.00
48668;BME280;34453;52.198;5.004;2023-09-30T05:20:13;102545.25;;;13.32;100.00
48668;BME280;34453;52.198;5.004;2023-09-30T05:22:39;102542.84;;;13.29;100.00
48668;BME280;34453;52.198;5.004;2023-09-30T05:25:11;102548.22;;;13.27;100.00
48668;BME280;34453;52.198;5.004;2023-09-30T05:27:37;102546.53;;;13.26;100.00
48668;BME280;34453;52.198;5.004;2023-09-30T05:30:03;102542.34;;;13.24;100.00
48668;BME280;34453;52.198;5.004;2023-09-30T05:32:31;102542.34;;;13.24;100.00
48668;BME280;34453;52.198;5.004;2023-09-30T05:34:56;102555.50;;;13.24;100.00
48668;BME280;34453;52.198;5.004;2023-09-30T05:37:23;102557.28;;;13.23;100.00
48668;BME280;34453;52.198;5.004;2023-09-30T05:39:49;102557.78;;;13.29;100.00
48668;BME280;34453;52.198;5.004;2023-09-30T05:42:17;102554.22;;;13.30;100.00
48668;BME280;34453;52.198;5.004;2023-09-30T05:44:44;102558.72;;;13.27;100.00
48668;BME280;34453;52.198;5.004;2023-09-30T05:47:10;102540.78;;;13.21;100.00
48668;BME280;34453;52.198;5.004;2023-09-30T05:49:36;102540.44;;;13.26;100.00
48668;BME280;34453;52.198;5.004;2023-09-30T05:52:03;102535.06;;;13.27;100.00
48668;BME280;34453;52.198;5.004;2023-09-30T05:54:28;102548.31;;;13.26;100.00
48668;BME280;34453;52.198;5.004;2023-09-30T05:56:54;102550.63;;;13.31;100.00
48668;BME280;34453;52.198;5.004;2023-09-30T05:59:20;102548.72;;;13.33;100.00
48668;BME280;34453;52.198;5.004;2023-09-30T06:01:46;102551.09;;;13.36;100.00
48668;BME280;34453;52.198;5.004;2023-09-30T06:04:12;102561.25;;;13.40;100.00
48668;BME280;34453;52.198;5.004;2023-09-30T06:06:37;102557.34;;;13.46;100.00
48668;BME280;34453;52.198;5.004;2023-09-30T06:09:04;102547.75;;;13.45;100.00
48668;BME280;34453;52.198;5.004;2023-09-30T06:11:29;102549.19;;;13.38;100.00
48668;BME280;34453;52.198;5.004;2023-09-30T06:13:55;102546.34;;;13.41;100.00
48668;BME280;34453;52.198;5.004;2023-09-30T06:16:21;102546.56;;;13.38;100.00
48668;BME280;34453;52.198;5.004;2023-09-30T06:18:46;102547.91;;;13.32;100.00
48668;BME280;34453;52.198;5.004;2023-09-30T06:21:13;102550.28;;;13.35;100.00
48668;BME280;34453;52.198;5.004;2023-09-30T06:23:40;102543.13;;;13.37;100.00
48668;BME280;34453;52.198;5.004;2023-09-30T06:26:05;102558.06;;;13.37;100.00
48668;BME280;34453;52.198;5.004;2023-09-30T06:28:31;102560.78;;;13.35;100.00
48668;BME280;34453;52.198;5.004;2023-09-30T06:30:59;102568.56;;;13.37;100.00
48668;BME280;34453;52.198;5.004;2023-09-30T06:33:25;102574.03;;;13.34;100.00
48668;BME280;34453;52.198;5.004;2023-09-30T06:35:50;102577.63;;;13.33;100.00
48668;BME280;34453;52.198;5.004;2023-09-30T06:38:20;102597.25;;;13.40;100.00
48668;BME280;34453;52.198;5.004;2023-09-30T06:40:46;102591.50;;;13.35;100.00
48668;BME280;34453;52.198;5.004;2023-09-30T06:43:14;102600.31;;;13.34;100.00
48668;BME280;34453;52.198;5.004;2023-09-30T06:45:43;102588.88;;;13.35;100.00
48668;BME280;34453;52.198;5.004;2023-09-30T06:48:10;102586.97;;;13.37;100.00
48668;BME280;34453;52.198;5.004;2023-09-30T06:50:40;102587.06;;;13.35;100.00
48668;BME280;34453;52.198;5.004;2023-09-30T06:53:11;102599.03;;;13.39;100.00
48668;BME280;34453;52.198;5.004;2023-09-30T06:55:38;102608.72;;;13.39;100.00
48668;BME280;34453;52.198;5.004;2023-09-30T06:58:05;102623.88;;;13.35;100.00
48668;BME280;34453;52.198;5.004;2023-09-30T07:00:33;102624.72;;;13.36;100.00
48668;BME280;34453;52.198;5.004;2023-09-30T07:02:59;102620.19;;;13.38;100.00
48668;BME280;34453;52.198;5.004;2023-09-30T07:05:25;102619.63;;;13.45;100.00
48668;BME280;34453;52.198;5.004;2023-09-30T07:07:50;102621.91;;;13.50;100.00
48668;BME280;34453;52.198;5.004;2023-09-30T07:10:16;102636.59;;;13.53;100.00
48668;BME280;34453;52.198;5.004;2023-09-30T07:12:41;102629.78;;;13.61;100.00
48668;BME280;34453;52.198;5.004;2023-09-30T07:15:08;102638.31;;;13.76;100.00
48668;BME280;34453;52.198;5.004;2023-09-30T07:17:34;102640.69;;;13.91;100.00
48668;BME280;34453;52.198;5.004;2023-09-30T07:20:00;102651.13;;;14.03;100.00
48668;BME280;34453;52.198;5.004;2023-09-30T07:22:25;102642.75;;;14.21;100.00
48668;BME280;34453;52.198;5.004;2023-09-30T07:24:51;102652.56;;;14.19;100.00
48668;BME280;34453;52.198;5.004;2023-09-30T07:27:16;102665.72;;;14.19;100.00
48668;BME280;34453;52.198;5.004;2023-09-30T07:29:43;102669.06;;;14.21;100.00
48668;BME280;34453;52.198;5.004;2023-09-30T07:32:09;102684.34;;;14.27;100.00
48668;BME280;34453;52.198;5.004;2023-09-30T07:34:34;102679.94;;;14.27;100.00
48668;BME280;34453;52.198;5.004;2023-09-30T07:37:00;102680.78;;;14.28;100.00
48668;BME280;34453;52.198;5.004;2023-09-30T07:39:26;102684.13;;;14.30;100.00
48668;BME280;34453;52.198;5.004;2023-09-30T07:41:51;102696.09;;;14.23;100.00
48668;BME280;34453;52.198;5.004;2023-09-30T07:44:17;102691.88;;;14.20;100.00
48668;BME280;34453;52.198;5.004;2023-09-30T07:46:42;102698.38;;;14.27;100.00
48668;BME280;34453;52.198;5.004;2023-09-30T07:49:10;102700.16;;;14.27;100.00
48668;BME280;34453;52.198;5.004;2023-09-30T07:51:36;102697.75;;;14.35;100.00
48668;BME280;34453;52.198;5.004;2023-09-30T07:54:03;102688.56;;;14.41;100.00
48668;BME280;34453;52.198;5.004;2023-09-30T07:56:28;102692.13;;;14.40;100.00
48668;BME280;34453;52.198;5.004;2023-09-30T07:58:54;102692.38;;;14.48;100.00
48668;BME280;34453;52.198;5.004;2023-09-30T08:01:20;102681.59;;;14.51;100.00
48668;BME280;34453;52.198;5.004;2023-09-30T08:03:46;102672.41;;;14.57;100.00
48668;BME280;34453;52.198;5.004;2023-09-30T08:06:12;102671.69;;;14.55;100.00
48668;BME280;34453;52.198;5.004;2023-09-30T08:08:38;102672.38;;;14.68;100.00
48668;BME280;34453;52.198;5.004;2023-09-30T08:11:03;102674.53;;;14.74;100.00
48668;BME280;34453;52.198;5.004;2023-09-30T08:13:31;102665.50;;;14.88;100.00
48668;BME280;34453;52.198;5.004;2023-09-30T08:15:57;102660.28;;;14.98;100.00
48668;BME280;34453;52.198;5.004;2023-09-30T08:18:23;102657.66;;;14.98;100.00
48668;BME280;34453;52.198;5.004;2023-09-30T08:20:48;102650.91;;;15.05;100.00
48668;BME280;34453;52.198;5.004;2023-09-30T08:23:14;102653.31;;;15.08;100.00
48668;BME280;34453;52.198;5.004;2023-09-30T08:25:40;102660.50;;;15.06;100.00
48668;BME280;34453;52.198;5.004;2023-09-30T08:28:05;102662.50;;;15.13;100.00
48668;BME280;34453;52.198;5.004;2023-09-30T08:30:33;102677.94;;;15.18;100.00
48668;BME280;34453;52.198;5.004;2023-09-30T08:32:59;102674.25;;;15.21;100.00
48668;BME280;34453;52.198;5.004;2023-09-30T08:35:25;102680.06;;;15.24;100.00
48668;BME280;34453;52.198;5.004;2023-09-30T08:37:50;102684.03;;;15.30;100.00
48668;BME280;34453;52.198;5.004;2023-09-30T08:40:22;102689.34;;;15.40;100.00
48668;BME280;34453;52.198;5.004;2023-09-30T08:42:52;102692.59;;;15.43;100.00
48668;BME280;34453;52.198;5.004;2023-09-30T08:45:18;102684.84;;;15.51;100.00
48668;BME280;34453;52.198;5.004;2023-09-30T08:47:45;102687.06;;;15.67;100.00
48668;BME280;34453;52.198;5.004;2023-09-30T08:50:11;102683.78;;;15.75;100.00
48668;BME280;34453;52.198;5.004;2023-09-30T08:52:40;102685.75;;;15.83;100.00
48668;BME280;34453;52.198;5.004;2023-09-30T08:55:07;102682.00;;;16.06;100.00
48668;BME280;34453;52.198;5.004;2023-09-30T08:57:38;102687.47;;;16.14;100.00
48668;BME280;34453;52.198;5.004;2023-09-30T09:00:08;102688.75;;;16.30;100.00
48668;BME280;34453;52.198;5.004;2023-09-30T09:02:38;102701.91;;;16.61;100.00
48668;BME280;34453;52.198;5.004;2023-09-30T09:05:04;102711.69;;;16.70;100.00
48668;BME280;34453;52.198;5.004;2023-09-30T09:07:29;102713.34;;;16.71;100.00
48668;BME280;34453;52.198;5.004;2023-09-30T09:10:06;102718.69;;;16.90;100.00
48668;BME280;34453;52.198;5.004;2023-09-30T09:12:34;102734.34;;;16.72;100.00
48668;BME280;34453;52.198;5.004;2023-09-30T09:15:00;102745.22;;;16.79;100.00
48668;BME280;34453;52.198;5.004;2023-09-30T09:17:46;102735.13;;;17.04;100.00
48668;BME280;34453;52.198;5.004;2023-09-30T09:20:17;102747.94;;;17.18;100.00
48668;BME280;34453;52.198;5.004;2023-09-30T09:22:46;102747.66;;;17.31;100.00
48668;BME280;34453;52.198;5.004;2023-09-30T09:25:12;102765.47;;;17.38;100.00
48668;BME280;34453;52.198;5.004;2023-09-30T09:27:38;102766.59;;;17.55;100.00
48668;BME280;34453;52.198;5.004;2023-09-30T09:30:23;102764.63;;;17.67;100.00
48668;BME280;34453;52.198;5.004;2023-09-30T09:33:01;102765.50;;;17.68;100.00
48668;BME280;34453;52.198;5.004;2023-09-30T09:35:28;102774.09;;;17.79;100.00
48668;BME280;34453;52.198;5.004;2023-09-30T09:38:06;102780.94;;;17.92;100.00
48668;BME280;34453;52.198;5.004;2023-09-30T09:40:36;102790.19;;;18.25;100.00
48668;BME280;34453;52.198;5.004;2023-09-30T09:43:06;102786.25;;;18.67;100.00
48668;BME280;34453;52.198;5.004;2023-09-30T09:45:33;102786.69;;;18.90;100.00
48668;BME280;34453;52.198;5.004;2023-09-30T09:48:00;102800.25;;;19.14;100.00
48668;BME280;34453;52.198;5.004;2023-09-30T09:50:27;102792.00;;;19.35;100.00
48668;BME280;34453;52.198;5.004;2023-09-30T09:52:54;102796.97;;;18.75;100.00
48668;BME280;34453;52.198;5.004;2023-09-30T09:55:24;102792.22;;;18.78;100.00
48668;BME280;34453;52.198;5.004;2023-09-30T09:57:51;102805.41;;;19.16;100.00
48668;BME280;34453;52.198;5.004;2023-09-30T10:00:26;102810.03;;;19.32;100.00
48668;BME280;34453;52.198;5.004;2023-09-30T10:02:52;102800.25;;;19.32;100.00
48668;BME280;34453;52.198;5.004;2023-09-30T10:05:20;102808.50;;;19.47;100.00
48668;BME280;34453;52.198;5.004;2023-09-30T10:08:05;102788.41;;;19.44;100.00
48668;BME280;34453;52.198;5.004;2023-09-30T10:10:36;102795.88;;;19.41;100.00
48668;BME280;34453;52.198;5.004;2023-09-30T10:13:02;102798.56;;;19.67;100.00
48668;BME280;34453;52.198;5.004;2023-09-30T10:18:12;102784.63;;;19.47;100.00
48668;BME280;34453;52.198;5.004;2023-09-30T10:20:39;102776.88;;;19.54;100.00
48668;BME280;34453;52.198;5.004;2023-09-30T10:26:14;102788.88;;;19.58;100.00
48668;BME280;34453;52.198;5.004;2023-09-30T10:28:45;102772.03;;;19.31;100.00
48668;BME280;34453;52.198;5.004;2023-09-30T10:31:21;102776.75;;;19.37;100.00
48668;BME280;34453;52.198;5.004;2023-09-30T10:36:39;102769.75;;;19.00;100.00
48668;BME280;34453;52.198;5.004;2023-09-30T10:39:05;102784.06;;;18.90;100.00
48668;BME280;34453;52.198;5.004;2023-09-30T10:46:53;102778.38;;;18.47;100.00
48668;BME280;34453;52.198;5.004;2023-09-30T10:51:49;102780.69;;;18.32;100.00
48668;BME280;34453;52.198;5.004;2023-09-30T10:54:21;102787.69;;;18.23;100.00
48668;BME280;34453;52.198;5.004;2023-09-30T10:56:48;102779.88;;;18.22;100.00
48668;BME280;34453;52.198;5.004;2023-09-30T10:59:23;102787.84;;;18.22;100.00
48668;BME280;34453;52.198;5.004;2023-09-30T11:01:50;102784.91;;;18.15;100.00
48668;BME280;34453;52.198;5.004;2023-09-30T11:04:15;102782.16;;;18.07;100.00
48668;BME280;34453;52.198;5.004;2023-09-30T11:06:42;102788.13;;;18.09;100.00
48668;BME280;34453;52.198;5.004;2023-09-30T11:09:08;102784.69;;;17.99;100.00
48668;BME280;34453;52.198;5.004;2023-09-30T11:11:40;102783.72;;;17.90;100.00
48668;BME280;34453;52.198;5.004;2023-09-30T11:14:36;102776.63;;;17.91;100.00
48668;BME280;34453;52.198;5.004;2023-09-30T11:17:02;102781.50;;;17.95;100.00
48668;BME280;34453;52.198;5.004;2023-09-30T11:19:36;102768.25;;;17.95;100.00
48668;BME280;34453;52.198;5.004;2023-09-30T11:22:03;102769.63;;;17.99;100.00
48668;BME280;34453;52.198;5.004;2023-09-30T11:24:28;102759.44;;;18.05;100.00
48668;BME280;34453;52.198;5.004;2023-09-30T11:26:55;102761.13;;;18.06;100.00
48668;BME280;34453;52.198;5.004;2023-09-30T11:29:21;102751.91;;;18.10;100.00
48668;BME280;34453;52.198;5.004;2023-09-30T11:31:48;102753.28;;;18.14;100.00
48668;BME280;34453;52.198;5.004;2023-09-30T11:34:17;102751.44;;;18.24;100.00
48668;BME280;34453;52.198;5.004;2023-09-30T11:36:52;102758.88;;;18.48;100.00
48668;BME280;34453;52.198;5.004;2023-09-30T11:39:26;102771.13;;;18.49;100.00
48668;BME280;34453;52.198;5.004;2023-09-30T11:41:53;102759.44;;;18.42;100.00
48668;BME280;34453;52.198;5.004;2023-09-30T11:44:20;102765.56;;;18.42;100.00
48668;BME280;34453;52.198;5.004;2023-09-30T11:46:53;102777.31;;;18.40;100.00
48668;BME280;34453;52.198;5.004;2023-09-30T11:49:37;102758.38;;;18.35;100.00
48668;BME280;34453;52.198;5.004;2023-09-30T11:52:13;102769.78;;;18.35;100.00
48668;BME280;34453;52.198;5.004;2023-09-30T11:54:44;102770.09;;;18.32;100.00
48668;BME280;34453;52.198;5.004;2023-09-30T11:57:14;102755.34;;;18.30;100.00
48668;BME280;34453;52.198;5.004;2023-09-30T11:59:47;102755.34;;;18.30;100.00
48668;BME280;34453;52.198;5.004;2023-09-30T12:02:13;102758.69;;;18.22;100.00
48668;BME280;34453;52.198;5.004;2023-09-30T12:04:44;102732.06;;;18.23;100.00
48668;BME280;34453;52.198;5.004;2023-09-30T12:07:10;102733.44;;;18.28;100.00
48668;BME280;34453;52.198;5.004;2023-09-30T12:09:36;102725.88;;;18.33;100.00
48668;BME280;34453;52.198;5.004;2023-09-30T12:12:03;102740.50;;;18.37;100.00
48668;BME280;34453;52.198;5.004;2023-09-30T12:14:29;102733.19;;;18.49;100.00
48668;BME280;34453;52.198;5.004;2023-09-30T12:16:56;102733.31;;;18.57;100.00
48668;BME280;34453;52.198;5.004;2023-09-30T12:19:22;102724.72;;;18.63;100.00
48668;BME280;34453;52.198;5.004;2023-09-30T12:21:48;102728.81;;;18.85;100.00
48668;BME280;34453;52.198;5.004;2023-09-30T12:24:17;102722.09;;;18.91;100.00
48668;BME280;34453;52.198;5.004;2023-09-30T12:26:48;102719.53;;;19.17;100.00
48668;BME280;34453;52.198;5.004;2023-09-30T12:31:50;102721.84;;;19.20;100.00
48668;BME280;34453;52.198;5.004;2023-09-30T12:34:16;102731.09;;;19.34;100.00
48668;BME280;34453;52.198;5.004;2023-09-30T12:36:42;102716.78;;;19.26;100.00
48668;BME280;34453;52.198;5.004;2023-09-30T12:39:09;102723.75;;;19.45;100.00
48668;BME280;34453;52.198;5.004;2023-09-30T12:41:39;102725.25;;;19.48;100.00
48668;BME280;34453;52.198;5.004;2023-09-30T12:44:06;102733.91;;;19.50;100.00
48668;BME280;34453;52.198;5.004;2023-09-30T12:46:32;102731.94;;;19.34;100.00
48668;BME280;34453;52.198;5.004;2023-09-30T12:49:06;102725.53;;;19.19;100.00
48668;BME280;34453;52.198;5.004;2023-09-30T12:51:33;102727.47;;;18.99;100.00
48668;BME280;34453;52.198;5.004;2023-09-30T12:53:59;102730.81;;;19.01;100.00
48668;BME280;34453;52.198;5.004;2023-09-30T12:56:25;102731.34;;;19.22;100.00
48668;BME280;34453;52.198;5.004;2023-09-30T12:58:50;102726.75;;;19.51;100.00